Time;durP1;ratioP1;P1;durP2;ratioP2;P2;SDS_P1;SDS_P2;PMS_P1;PMS_P2;Temp;Humidity;BMP_temperature;BMP_pressure;BME280_temperature;BME280_humidity;BME280_pressure;Samples;Min_cycle;Max_cycle;Signal;HPM_P1;HPM_P2
2022/02/03 00:00:20;;;;;;;15.30;11.00;;;11.70;99.90;;;;;;5023447;28;20587;-75
2022/02/03 00:02:35;;;;;;;11.63;10.32;;;11.70;99.90;;;;;;5020482;28;20189;-75
2022/02/03 00:24:29;;;;;;;11.50;10.30;;;11.80;99.90;;;;;;5021686;28;20178;-76
2022/02/03 00:27:18;;;;;;;9.68;8.43;;;11.80;99.90;;;;;;5030149;28;20251;-75
2022/02/03 00:29:56;;;;;;;11.68;8.55;;;11.80;99.90;;;;;;5019330;28;20183;-75
2022/02/03 00:35:20;;;;;;;10.80;9.45;;;11.80;99.90;;;;;;5006652;28;20181;-75
2022/02/03 00:51:22;;;;;;;12.18;9.02;;;11.90;99.90;;;;;;5021421;28;20249;-76
2022/02/03 00:53:49;;;;;;;8.93;8.02;;;11.90;99.90;;;;;;5024357;28;20260;-75
2022/02/03 00:56:23;;;;;;;12.20;8.20;;;11.90;99.90;;;;;;5024948;28;20165;-75
2022/02/03 00:59:02;;;;;;;11.10;9.18;;;11.90;99.90;;;;;;5035730;28;20238;-75
2022/02/03 01:01:31;;;;;;;10.68;9.45;;;11.90;99.90;;;;;;5038917;28;20200;-75
2022/02/03 01:04:01;;;;;;;8.35;7.53;;;11.90;99.90;;;;;;5018742;28;20188;-75
2022/02/03 01:06:29;;;;;;;11.25;8.02;;;11.90;99.90;;;;;;5021805;28;20185;-75
2022/02/03 01:08:56;;;;;;;9.60;7.75;;;11.90;99.90;;;;;;5022612;28;20190;-75
2022/02/03 01:11:30;;;;;;;9.88;8.73;;;11.90;99.90;;;;;;5003482;28;20217;-75
2022/02/03 01:14:11;;;;;;;9.93;8.93;;;11.90;99.90;;;;;;5022004;28;20271;-75
2022/02/03 01:16:54;;;;;;;8.43;7.43;;;11.90;99.90;;;;;;5019808;28;20181;-76
2022/02/03 01:19:40;;;;;;;9.93;8.90;;;11.90;99.90;;;;;;5030748;28;20644;-75
2022/02/03 01:43:55;;;;;;;10.05;8.30;;;11.90;99.90;;;;;;5019691;28;20231;-76
2022/02/03 01:46:38;;;;;;;9.52;8.23;;;11.90;99.90;;;;;;5018540;28;20177;-75
2022/02/03 01:49:14;;;;;;;11.75;9.20;;;11.90;99.90;;;;;;5015761;28;20221;-75
2022/02/03 01:51:55;;;;;;;11.70;9.00;;;11.90;99.90;;;;;;5028692;28;20676;-76
2022/02/03 01:54:29;;;;;;;10.73;8.65;;;11.90;99.90;;;;;;5022722;28;20260;-75
2022/02/03 01:57:17;;;;;;;13.20;9.40;;;11.90;99.90;;;;;;5019869;28;20288;-75
2022/02/03 01:59:50;;;;;;;10.05;9.05;;;11.90;99.90;;;;;;5019788;28;20170;-75
2022/02/03 02:02:27;;;;;;;9.98;8.75;;;11.90;99.90;;;;;;5035045;28;20812;-75
2022/02/03 02:04:59;;;;;;;12.18;10.40;;;11.90;99.90;;;;;;5036917;28;20189;-76
2022/02/03 02:08:05;;;;;;;11.18;8.88;;;11.90;99.90;;;;;;5027545;28;20181;-75
2022/02/03 02:11:26;;;;;;;11.23;8.32;;;11.90;99.90;;;;;;5008028;28;20201;-75
2022/02/03 02:17:11;;;;;;;10.63;9.15;;;11.90;99.90;;;;;;5019309;28;20573;-75
2022/02/03 02:39:09;;;;;;;8.70;7.82;;;11.80;99.90;;;;;;5019332;28;20174;-76
2022/02/03 02:44:11;;;;;;;9.13;8.20;;;11.80;99.90;;;;;;5023242;28;20193;-76
2022/02/03 02:46:47;;;;;;;7.68;6.93;;;11.90;99.90;;;;;;5021744;28;20185;-75
2022/02/03 02:49:48;;;;;;;10.80;7.30;;;11.80;99.90;;;;;;5023322;28;20277;-75
2022/02/03 02:52:24;;;;;;;8.00;7.20;;;11.90;99.90;;;;;;5031366;28;21119;-74
2022/02/03 03:36:53;;;;;;;7.05;6.35;;;12.00;99.90;;;;;;5039852;28;20570;-76
2022/02/03 03:39:27;;;;;;;7.90;5.75;;;12.00;99.90;;;;;;5024478;28;20580;-76
2022/02/03 03:41:58;;;;;;;6.85;6.22;;;12.00;99.90;;;;;;5023830;28;20292;-76
2022/02/03 03:44:29;;;;;;;8.00;6.72;;;12.00;99.90;;;;;;5007380;28;20181;-76
2022/02/03 03:47:03;;;;;;;7.22;6.30;;;12.00;99.90;;;;;;5025398;28;20184;-76
2022/02/03 03:49:46;;;;;;;8.95;6.47;;;12.00;99.90;;;;;;5026407;28;20261;-75
2022/02/03 03:52:19;;;;;;;8.43;6.00;;;12.00;99.90;;;;;;5023605;28;20219;-75
2022/02/03 03:58:03;;;;;;;5.65;4.75;;;11.90;99.90;;;;;;5021105;28;20186;-75
2022/02/03 04:42:00;;;;;;;3.65;3.15;;;11.80;99.90;;;;;;5029355;28;20198;-75
2022/02/03 05:03:20;;;;;;;3.72;3.42;;;11.70;99.90;;;;;;5023846;28;20203;-76
2022/02/03 05:09:25;;;;;;;6.32;4.22;;;11.70;99.90;;;;;;5004508;28;20186;-76
2022/02/03 05:12:24;;;;;;;4.53;3.55;;;11.70;99.90;;;;;;5021279;28;20293;-76
2022/02/03 05:15:33;;;;;;;5.65;3.13;;;11.70;99.90;;;;;;5038752;28;20181;-76
2022/02/03 05:22:13;;;;;;;6.18;3.40;;;11.70;99.90;;;;;;5018881;28;20205;-76
2022/02/03 05:25:29;;;;;;;5.65;3.40;;;11.70;99.90;;;;;;5022714;28;20190;-76
2022/02/03 05:46:32;;;;;;;6.05;3.90;;;11.70;99.90;;;;;;5022244;28;20233;-76
2022/02/03 06:02:46;;;;;;;7.13;5.35;;;11.70;99.90;;;;;;5025914;28;20186;-75
2022/02/03 06:05:31;;;;;;;4.07;3.40;;;11.70;99.90;;;;;;5019061;28;20236;-76
2022/02/03 06:13:44;;;;;;;4.25;3.85;;;11.70;99.90;;;;;;5024289;28;20178;-77
2022/02/03 06:29:28;;;;;;;6.57;5.03;;;11.70;99.90;;;;;;5005903;28;20240;-75
2022/02/03 06:31:54;;;;;;;6.55;5.43;;;11.70;99.90;;;;;;5022554;28;20255;-76
2022/02/03 06:34:21;;;;;;;12.43;6.63;;;11.70;99.90;;;;;;5026388;28;20174;-76
2022/02/03 06:36:50;;;;;;;7.97;5.57;;;11.80;99.90;;;;;;5022912;28;20166;-76
2022/02/03 06:39:17;;;;;;;6.18;5.13;;;11.80;99.90;;;;;;5038069;28;20240;-76
2022/02/03 06:41:44;;;;;;;6.40;4.88;;;11.80;99.90;;;;;;5032599;28;20223;-76
2022/02/03 06:44:12;;;;;;;10.88;5.50;;;11.80;99.90;;;;;;5022892;28;20174;-76
2022/02/03 06:46:40;;;;;;;6.35;5.70;;;11.80;99.90;;;;;;5023944;28;20686;-76
2022/02/03 06:49:17;;;;;;;5.68;5.07;;;11.80;99.90;;;;;;5023467;28;20222;-76
2022/02/03 06:51:52;;;;;;;8.13;6.40;;;11.80;99.90;;;;;;5038981;28;20200;-77
2022/02/03 06:54:28;;;;;;;5.90;5.38;;;11.80;99.90;;;;;;5024763;28;20709;-76
2022/02/03 06:56:59;;;;;;;6.75;5.35;;;11.80;99.90;;;;;;5022006;28;20263;-77
2022/02/03 06:59:36;;;;;;;6.25;5.00;;;11.80;99.90;;;;;;5040050;28;20181;-78
2022/02/03 07:02:03;;;;;;;9.20;6.30;;;11.80;99.90;;;;;;5026477;28;20347;-77
2022/02/03 07:04:38;;;;;;;8.00;6.32;;;11.80;99.90;;;;;;5023561;28;20237;-77
2022/02/03 07:07:04;;;;;;;9.45;7.20;;;11.80;99.90;;;;;;5022659;28;20182;-77
2022/02/03 07:09:30;;;;;;;8.50;7.67;;;11.70;99.90;;;;;;5024714;28;20263;-76
2022/02/03 07:11:55;;;;;;;10.55;7.38;;;11.60;99.90;;;;;;5029060;28;20731;-76
2022/02/03 07:14:23;;;;;;;10.40;7.00;;;11.50;99.90;;;;;;5025355;28;20599;-76
2022/02/03 07:16:51;;;;;;;7.38;6.30;;;11.50;99.90;;;;;;5024272;28;20210;-76
2022/02/03 07:19:17;;;;;;;7.80;6.45;;;11.50;99.90;;;;;;5024493;28;20173;-76
2022/02/03 07:21:43;;;;;;;7.33;6.43;;;11.60;99.90;;;;;;5027501;28;20272;-76
2022/02/03 07:24:09;;;;;;;9.23;6.43;;;11.60;99.90;;;;;;5025895;28;20643;-76
2022/02/03 07:26:35;;;;;;;8.03;7.23;;;11.60;99.90;;;;;;5024981;28;20631;-76
2022/02/03 07:29:01;;;;;;;8.10;6.80;;;11.60;99.90;;;;;;5024574;28;20612;-76
2022/02/03 07:31:27;;;;;;;9.27;7.18;;;11.70;99.90;;;;;;5020346;28;20206;-76
2022/02/03 07:33:55;;;;;;;7.63;6.50;;;11.70;99.90;;;;;;5039975;28;20184;-76
2022/02/03 07:36:21;;;;;;;8.57;6.35;;;11.60;99.90;;;;;;5024255;28;20221;-76
2022/02/03 07:38:47;;;;;;;9.18;6.65;;;11.60;99.90;;;;;;5008172;28;20642;-76
2022/02/03 07:41:12;;;;;;;8.70;7.57;;;11.60;99.90;;;;;;5006806;28;20201;-77
2022/02/03 07:43:38;;;;;;;12.10;8.30;;;11.50;99.90;;;;;;5022567;28;20735;-76
2022/02/03 07:46:04;;;;;;;8.53;7.03;;;11.50;99.90;;;;;;5024140;28;20177;-76
2022/02/03 07:48:29;;;;;;;9.63;7.87;;;11.50;99.90;;;;;;5004373;28;20261;-76
2022/02/03 07:50:55;;;;;;;8.33;7.53;;;11.50;99.90;;;;;;5022796;28;20273;-76
2022/02/03 07:53:21;;;;;;;7.22;6.47;;;11.50;99.90;;;;;;5027090;28;20169;-76
2022/02/03 07:55:47;;;;;;;7.28;6.57;;;11.50;99.90;;;;;;5028991;28;20261;-76
2022/02/03 07:58:13;;;;;;;9.33;8.43;;;11.50;99.90;;;;;;5024280;28;20261;-76
2022/02/03 08:00:39;;;;;;;10.67;7.90;;;11.50;99.90;;;;;;5020242;28;20205;-77
2022/02/03 08:03:11;;;;;;;8.60;7.70;;;11.50;99.90;;;;;;5031050;28;20174;-77
2022/02/03 08:05:39;;;;;;;9.05;8.15;;;11.60;99.90;;;;;;5022005;28;21045;-76
2022/02/03 08:08:29;;;;;;;12.60;7.97;;;11.60;99.90;;;;;;5027514;28;20770;-77
2022/02/03 08:10:58;;;;;;;9.65;7.05;;;11.70;99.90;;;;;;5022073;28;20293;-76
2022/02/03 08:13:33;;;;;;;8.82;6.57;;;11.70;99.90;;;;;;5010755;28;20174;-76
2022/02/03 08:16:27;;;;;;;7.82;5.90;;;11.70;99.90;;;;;;5031645;28;20173;-76
2022/02/03 08:18:51;;;;;;;8.35;6.40;;;11.80;99.90;;;;;;5045802;28;20184;-76
2022/02/03 08:21:19;;;;;;;6.68;5.30;;;11.80;99.90;;;;;;5030641;28;20193;-76
2022/02/03 08:33:51;;;;;;;4.80;4.35;;;11.90;99.90;;;;;;5013146;28;20182;-77
2022/02/03 08:36:18;;;;;;;7.78;5.80;;;11.90;99.90;;;;;;5023033;28;20175;-77
2022/02/03 08:38:50;;;;;;;5.38;4.88;;;11.90;99.90;;;;;;5024474;28;20613;-76
2022/02/03 08:41:16;;;;;;;7.10;5.50;;;11.90;99.90;;;;;;5022820;28;20201;-76
2022/02/03 08:43:43;;;;;;;7.37;5.93;;;11.90;99.90;;;;;;5005212;28;20182;-76
2022/02/03 08:46:12;;;;;;;5.75;4.63;;;12.00;99.90;;;;;;5028283;28;21324;-76
2022/02/03 08:48:38;;;;;;;6.15;4.85;;;12.00;99.90;;;;;;5005741;28;20182;-76
2022/02/03 08:51:07;;;;;;;5.28;4.78;;;12.10;99.90;;;;;;5023919;28;20193;-76
2022/02/03 08:53:41;;;;;;;5.75;4.57;;;12.10;99.90;;;;;;5003586;28;20178;-76
2022/02/03 08:59:01;;;;;;;8.05;5.43;;;12.10;99.90;;;;;;5022303;28;20180;-75
2022/02/03 09:55:27;;;;;;;3.10;2.55;;;12.50;99.90;;;;;;5018698;28;20189;-75
2022/02/03 09:57:59;;;;;;;2.75;2.50;;;12.50;99.90;;;;;;5024225;28;20186;-75
2022/02/03 10:03:10;;;;;;;3.15;2.58;;;12.50;99.90;;;;;;5025141;28;20417;-75
2022/02/03 10:05:40;;;;;;;5.55;2.13;;;12.50;99.90;;;;;;5019830;28;20186;-75
2022/02/03 10:08:12;;;;;;;2.40;2.10;;;12.50;99.90;;;;;;5021792;28;20653;-75
2022/02/03 10:10:39;;;;;;;2.17;1.70;;;12.50;99.90;;;;;;5025132;28;20235;-75
2022/02/03 10:13:22;;;;;;;3.25;2.05;;;12.50;99.90;;;;;;5026219;28;20198;-75
2022/02/03 10:16:03;;;;;;;2.20;1.67;;;12.50;99.90;;;;;;4986093;28;20188;-75
2022/02/03 10:18:30;;;;;;;2.10;1.83;;;12.50;99.90;;;;;;5020407;28;20233;-75
2022/02/03 10:20:57;;;;;;;2.55;1.70;;;12.50;99.90;;;;;;5020020;28;20202;-76
2022/02/03 10:23:24;;;;;;;2.53;1.90;;;12.50;99.90;;;;;;5024740;28;20206;-75
2022/02/03 10:25:55;;;;;;;1.92;1.55;;;12.50;99.90;;;;;;5020095;28;20584;-75
2022/02/03 10:28:21;;;;;;;3.22;1.85;;;12.50;99.90;;;;;;5017943;28;20270;-75
2022/02/03 10:30:51;;;;;;;4.57;1.77;;;12.60;99.90;;;;;;5018400;28;20310;-75
2022/02/03 10:33:19;;;;;;;2.40;1.70;;;12.60;99.90;;;;;;5029327;28;20627;-75
2022/02/03 10:35:53;;;;;;;2.45;1.50;;;12.60;99.90;;;;;;5026619;28;20175;-75
2022/02/03 10:51:48;;;;;;;1.55;0.98;;;12.70;99.90;;;;;;5022239;28;20225;-77
2022/02/03 10:54:43;;;;;;;1.70;1.10;;;12.70;99.90;;;;;;5023100;28;20189;-75
2022/02/03 11:00:25;;;;;;;1.75;1.00;;;12.70;99.90;;;;;;5023150;28;20681;-77
2022/02/03 11:03:09;;;;;;;1.50;1.20;;;12.70;99.90;;;;;;5024286;28;20186;-77
2022/02/03 11:05:51;;;;;;;1.43;1.17;;;12.70;99.90;;;;;;5009298;28;20593;-75
2022/02/03 11:08:36;;;;;;;1.40;0.93;;;12.70;99.90;;;;;;5006029;28;20687;-76
2022/02/03 11:11:02;;;;;;;1.67;1.00;;;12.70;99.90;;;;;;5020965;28;20202;-76
2022/02/03 11:13:34;;;;;;;3.78;1.10;;;12.70;99.90;;;;;;5025061;28;20575;-76
2022/02/03 11:16:05;;;;;;;2.00;1.02;;;12.60;99.90;;;;;;5026050;28;20180;-74
2022/02/03 11:18:32;;;;;;;2.20;1.10;;;12.60;99.90;;;;;;5023203;28;20188;-74
2022/02/03 11:21:00;;;;;;;1.90;1.20;;;12.60;99.90;;;;;;5029737;28;20650;-74
2022/02/03 11:31:49;;;;;;;1.85;1.65;;;12.50;99.90;;;;;;5021006;28;20245;-74
2022/02/03 11:37:14;;;;;;;3.35;2.20;;;12.50;99.90;;;;;;5021368;28;20178;-74
2022/02/03 12:17:53;;;;;;;4.95;2.72;;;12.00;99.90;;;;;;5035917;28;20178;-76
2022/02/03 12:20:59;;;;;;;2.10;1.80;;;12.00;99.90;;;;;;5036439;28;20601;-75
2022/02/03 12:26:17;;;;;;;2.70;1.85;;;11.90;99.90;;;;;;5023488;28;20190;-75
2022/02/03 12:29:00;;;;;;;3.47;2.58;;;11.80;99.90;;;;;;5033753;28;20189;-76
2022/02/03 12:39:45;;;;;;;2.53;2.30;;;11.70;99.90;;;;;;5024715;28;20178;-75
2022/02/03 12:42:42;;;;;;;4.70;3.45;;;11.70;99.90;;;;;;5029159;28;20605;-74
2022/02/03 12:45:23;;;;;;;2.97;2.10;;;11.70;99.90;;;;;;5015592;28;20197;-77
2022/02/03 12:47:53;;;;;;;3.08;2.50;;;11.70;99.90;;;;;;5025184;28;20182;-75
2022/02/03 12:50:29;;;;;;;2.25;1.95;;;11.70;99.90;;;;;;5025374;28;20178;-74
2022/02/03 12:52:58;;;;;;;3.10;2.40;;;11.70;99.90;;;;;;5020615;28;20569;-75
2022/02/03 12:55:37;;;;;;;2.13;1.67;;;11.70;99.90;;;;;;5018747;28;20600;-74
2022/02/03 12:58:12;;;;;;;1.70;1.20;;;11.70;99.90;;;;;;5020395;28;20252;-74
2022/02/03 13:00:44;;;;;;;2.20;1.67;;;11.70;99.90;;;;;;5020685;28;20201;-75
2022/02/03 13:03:12;;;;;;;2.05;1.33;;;11.60;99.90;;;;;;5027617;28;20193;-75
2022/02/03 13:05:41;;;;;;;2.47;1.77;;;11.60;99.90;;;;;;5021144;28;20186;-75
2022/02/03 13:08:10;;;;;;;2.83;2.40;;;11.60;99.90;;;;;;5035699;28;20194;-74
2022/02/03 13:10:38;;;;;;;2.88;2.00;;;11.60;99.90;;;;;;5027480;28;20632;-75
2022/02/03 13:13:12;;;;;;;2.47;1.88;;;11.60;99.90;;;;;;5023709;28;20251;-75
2022/02/03 13:15:41;;;;;;;2.70;1.75;;;11.60;99.90;;;;;;5043945;28;20252;-76
2022/02/03 13:18:14;;;;;;;2.20;1.80;;;11.50;99.90;;;;;;5024847;28;20169;-75
2022/02/03 13:20:47;;;;;;;2.95;2.05;;;11.50;99.90;;;;;;5028572;28;20220;-74
2022/02/03 13:23:20;;;;;;;2.63;1.85;;;11.50;99.90;;;;;;5019559;28;20650;-75
2022/02/03 13:26:03;;;;;;;3.20;2.00;;;11.40;99.90;;;;;;5018395;28;20174;-74
2022/02/03 13:37:21;;;;;;;3.35;2.13;;;11.20;99.90;;;;;;5020008;28;20562;-74
2022/02/03 13:39:48;;;;;;;3.08;1.85;;;11.20;99.90;;;;;;5018840;28;20289;-74
2022/02/03 13:42:16;;;;;;;3.05;2.65;;;11.20;99.90;;;;;;5023380;28;20217;-74
2022/02/03 13:44:42;;;;;;;2.50;2.30;;;11.20;99.90;;;;;;5027188;28;20261;-73
2022/02/03 13:47:25;;;;;;;3.00;2.20;;;11.20;99.90;;;;;;5028714;28;20212;-75
2022/02/03 13:50:04;;;;;;;2.85;2.17;;;11.10;99.90;;;;;;5041017;28;20592;-75
2022/02/03 13:52:38;;;;;;;3.15;2.85;;;11.20;99.90;;;;;;5009063;28;20201;-75
2022/02/03 14:15:07;;;;;;;4.50;2.25;;;11.30;99.90;;;;;;5011273;28;20178;-75
2022/02/03 14:28:32;;;;;;;2.67;2.13;;;11.30;99.90;;;;;;5023674;28;20585;-76
2022/02/03 14:31:03;;;;;;;4.97;2.10;;;11.20;99.90;;;;;;4991784;28;20224;-77
2022/02/03 14:33:36;;;;;;;3.10;2.05;;;11.20;99.90;;;;;;5021867;28;20189;-76
2022/02/03 14:36:07;;;;;;;3.80;3.00;;;11.20;99.90;;;;;;5000410;28;20170;-76
2022/02/03 14:38:46;;;;;;;3.92;3.10;;;11.10;99.90;;;;;;5023265;28;20177;-76
2022/02/03 14:41:20;;;;;;;3.53;2.85;;;11.10;99.90;;;;;;5041163;28;20292;-76
2022/02/03 14:43:45;;;;;;;2.85;2.35;;;11.10;99.90;;;;;;5027336;28;20177;-78
2022/02/03 14:46:14;;;;;;;3.03;2.73;;;11.10;99.90;;;;;;5028299;28;20174;-76
2022/02/03 14:48:43;;;;;;;3.33;3.03;;;11.10;99.90;;;;;;5021802;28;20182;-75
2022/02/03 14:51:13;;;;;;;2.55;2.35;;;11.00;99.90;;;;;;5025205;28;20536;-76
2022/02/03 14:53:51;;;;;;;3.25;2.65;;;11.00;99.90;;;;;;5022163;28;20181;-77
2022/02/03 14:59:01;;;;;;;2.40;1.85;;;11.00;99.90;;;;;;5006271;28;20213;-76
2022/02/03 15:01:28;;;;;;;6.18;2.85;;;11.00;99.90;;;;;;5022907;28;20562;-76
2022/02/03 15:03:56;;;;;;;4.30;3.00;;;11.00;99.90;;;;;;5006374;28;20681;-76
2022/02/03 15:06:25;;;;;;;2.83;2.55;;;11.00;99.90;;;;;;5029009;28;20276;-76
2022/02/03 15:09:12;;;;;;;4.25;3.15;;;11.00;99.90;;;;;;5041179;28;20204;-76
2022/02/03 15:14:12;;;;;;;4.18;2.30;;;11.00;99.90;;;;;;5031347;28;20196;-76
2022/02/03 15:16:38;;;;;;;3.73;2.30;;;11.00;99.90;;;;;;5025606;28;20181;-77
2022/02/03 15:19:06;;;;;;;2.70;2.00;;;11.00;99.90;;;;;;5015304;28;20947;-76
2022/02/03 15:21:32;;;;;;;3.45;2.20;;;11.00;99.90;;;;;;5026637;28;20605;-75
2022/02/03 15:23:58;;;;;;;4.30;2.80;;;11.00;99.90;;;;;;5024796;28;20188;-75
2022/02/03 15:26:24;;;;;;;4.75;2.58;;;11.00;99.90;;;;;;5022319;28;20521;-75
2022/02/03 15:28:50;;;;;;;3.17;2.50;;;11.00;99.90;;;;;;5026176;28;20288;-75
2022/02/03 15:31:32;;;;;;;3.45;2.50;;;11.00;99.90;;;;;;5021409;28;21265;-76
2022/02/03 15:34:08;;;;;;;3.55;2.70;;;11.00;99.90;;;;;;5023993;28;20189;-76
2022/02/03 15:36:36;;;;;;;6.40;5.07;;;11.00;99.90;;;;;;5032582;28;20173;-76
2022/02/03 15:39:08;;;;;;;5.25;3.70;;;11.00;99.90;;;;;;5025804;28;20206;-76
2022/02/03 15:41:34;;;;;;;6.47;4.05;;;11.00;99.90;;;;;;5024992;28;20201;-78
2022/02/03 15:44:01;;;;;;;4.70;3.00;;;10.90;99.90;;;;;;5017848;28;20201;-77
2022/02/03 15:46:30;;;;;;;6.05;3.20;;;10.90;99.90;;;;;;5021174;28;20170;-77
2022/02/03 15:49:07;;;;;;;4.00;2.60;;;10.90;99.90;;;;;;5026788;28;20268;-77
2022/02/03 16:01:54;;;;;;;2.70;2.33;;;10.80;99.90;;;;;;5030805;28;20280;-74
2022/02/03 16:13:11;;;;;;;2.75;2.20;;;10.80;99.90;;;;;;5018422;28;20181;-74
2022/02/03 16:17:50;;;;;;;3.38;2.22;;;10.80;99.90;;;;;;5025229;28;20178;-79
2022/02/03 16:20:31;;;;;;;3.25;2.13;;;10.80;99.90;;;;;;5030164;28;20197;-77
2022/02/03 16:52:54;;;;;;;4.00;3.60;;;10.80;99.90;;;;;;5023876;28;20630;-77
2022/02/03 16:55:24;;;;;;;4.85;3.33;;;10.80;99.90;;;;;;5026500;28;20177;-77
2022/02/03 16:57:52;;;;;;;4.00;2.80;;;10.70;99.90;;;;;;5023230;28;20375;-76
2022/02/03 17:00:19;;;;;;;3.95;3.22;;;10.70;99.90;;;;;;5011797;28;20201;-77
2022/02/03 17:02:45;;;;;;;4.97;3.28;;;10.70;99.90;;;;;;5024199;28;20585;-76
2022/02/03 17:05:12;;;;;;;3.67;2.80;;;10.70;99.90;;;;;;5022784;28;20186;-77
2022/02/03 17:07:38;;;;;;;4.50;2.45;;;10.70;99.90;;;;;;5021085;28;20577;-78
2022/02/03 17:10:06;;;;;;;3.50;3.08;;;10.70;99.90;;;;;;5022523;28;21174;-76
2022/02/03 17:12:34;;;;;;;4.07;2.88;;;10.70;99.90;;;;;;4997310;28;20715;-78
2022/02/03 17:15:00;;;;;;;4.25;2.70;;;10.60;99.90;;;;;;5027812;28;20227;-77
2022/02/03 17:17:27;;;;;;;4.90;4.15;;;10.70;99.90;;;;;;5022670;28;20165;-78
2022/02/03 17:19:53;;;;;;;4.65;3.70;;;10.60;99.90;;;;;;5022247;28;20213;-78
2022/02/03 17:22:25;;;;;;;7.68;5.50;;;10.60;99.90;;;;;;5026484;28;20554;-76
2022/02/03 17:27:37;;;;;;;4.30;3.35;;;10.60;99.90;;;;;;5027387;28;20174;-78
2022/02/03 17:30:14;;;;;;;4.47;3.10;;;10.60;99.90;;;;;;4988070;28;20181;-78
2022/02/03 18:06:31;;;;;;;5.22;4.75;;;10.60;99.90;;;;;;5051573;28;20326;-77
2022/02/03 18:30:29;;;;;;;6.68;3.92;;;10.60;99.90;;;;;;5022928;28;20700;-78
2022/02/03 18:33:26;;;;;;;5.47;3.65;;;10.60;99.90;;;;;;5035516;28;20201;-78
2022/02/03 18:47:37;;;;;;;5.60;4.50;;;10.60;99.90;;;;;;5034344;28;20166;-79
2022/02/03 19:11:34;;;;;;;5.20;4.70;;;10.60;99.90;;;;;;5021997;28;20678;-77
2022/02/03 19:22:09;;;;;;;4.97;4.47;;;10.50;99.90;;;;;;5022969;28;20209;-77
2022/02/03 19:26:54;;;;;;;4.33;3.93;;;10.50;99.90;;;;;;5041588;28;20207;-78
2022/02/03 19:57:23;;;;;;;4.47;3.72;;;10.60;99.90;;;;;;5026128;28;20207;-78
2022/02/03 20:00:53;;;;;;;3.92;3.50;;;10.60;99.90;;;;;;5040642;28;20276;-78
2022/02/03 20:05:21;;;;;;;4.85;4.35;;;10.60;99.90;;;;;;5021230;28;20224;-78
2022/02/03 20:07:58;;;;;;;5.47;4.65;;;10.60;99.90;;;;;;5023315;28;20178;-78
2022/02/03 20:10:46;;;;;;;5.50;4.90;;;10.60;99.90;;;;;;5042114;28;20181;-80
2022/02/03 20:13:12;;;;;;;4.70;4.18;;;10.60;99.90;;;;;;5029988;28;20532;-78
2022/02/03 20:15:39;;;;;;;6.50;5.77;;;10.60;99.90;;;;;;5025561;28;20193;-78
2022/02/03 20:18:06;;;;;;;6.78;4.90;;;10.60;99.90;;;;;;5023278;28;20588;-78
2022/02/03 20:20:32;;;;;;;5.28;4.78;;;10.50;99.90;;;;;;5024425;28;20190;-77
2022/02/03 20:23:01;;;;;;;5.38;4.88;;;10.50;99.90;;;;;;5023580;28;20178;-78
2022/02/03 20:25:28;;;;;;;6.15;5.18;;;10.50;99.90;;;;;;5019334;28;20190;-77
2022/02/03 20:27:58;;;;;;;5.32;4.82;;;10.50;99.90;;;;;;5006955;28;20224;-76
2022/02/03 20:30:26;;;;;;;5.63;4.63;;;10.50;99.90;;;;;;5025953;28;20184;-76
2022/02/03 20:32:52;;;;;;;5.40;4.70;;;10.50;99.90;;;;;;5005020;28;20674;-79
2022/02/03 20:35:17;;;;;;;6.60;6.00;;;10.50;99.90;;;;;;5024295;28;20577;-78
2022/02/03 20:37:43;;;;;;;5.67;5.17;;;10.50;99.90;;;;;;5004229;28;20298;-78
2022/02/03 20:40:10;;;;;;;5.43;4.90;;;10.50;99.90;;;;;;5022986;28;20201;-77
2022/02/03 20:42:36;;;;;;;6.43;5.82;;;10.50;99.90;;;;;;5026228;28;21288;-77
2022/02/03 20:45:02;;;;;;;7.47;5.13;;;10.50;99.90;;;;;;5024076;28;20184;-77
2022/02/03 20:47:30;;;;;;;6.57;5.93;;;10.50;99.90;;;;;;5021473;28;20174;-77
2022/02/03 20:49:57;;;;;;;7.40;5.93;;;10.50;99.90;;;;;;5021359;28;20188;-77
2022/02/03 20:52:23;;;;;;;6.65;6.00;;;10.50;99.90;;;;;;5021797;28;20640;-77
2022/02/03 20:54:49;;;;;;;6.30;5.70;;;10.50;99.90;;;;;;5022776;28;20192;-77
2022/02/03 20:57:15;;;;;;;6.10;5.50;;;10.50;99.90;;;;;;5021951;28;20176;-77
2022/02/03 21:00:12;;;;;;;5.57;5.05;;;10.50;99.90;;;;;;5022649;28;20174;-77
2022/02/03 21:02:48;;;;;;;5.43;4.72;;;10.50;99.90;;;;;;5020674;28;20606;-76
2022/02/03 21:05:16;;;;;;;10.63;5.47;;;10.50;99.90;;;;;;5021247;28;20186;-77
2022/02/03 21:07:44;;;;;;;5.55;4.95;;;10.50;99.90;;;;;;5018811;28;20252;-77
2022/02/03 21:10:13;;;;;;;5.95;5.25;;;10.50;99.90;;;;;;5021682;28;20273;-77
2022/02/03 21:12:39;;;;;;;5.20;4.70;;;10.50;99.90;;;;;;5020038;28;20661;-77
2022/02/03 21:15:08;;;;;;;5.93;5.33;;;10.50;99.90;;;;;;5022515;28;20185;-77
2022/02/03 21:17:35;;;;;;;6.75;5.97;;;10.50;99.90;;;;;;5019181;28;20588;-77
2022/02/03 21:20:22;;;;;;;6.90;5.05;;;10.50;99.90;;;;;;5022806;28;20208;-78
2022/02/03 21:22:51;;;;;;;6.20;5.60;;;10.50;99.90;;;;;;5023185;28;20178;-78
2022/02/03 21:25:23;;;;;;;5.40;4.90;;;10.40;99.90;;;;;;5019576;28;20181;-77
2022/02/03 21:27:53;;;;;;;6.30;5.70;;;10.40;99.90;;;;;;5020422;28;20178;-77
2022/02/03 21:30:20;;;;;;;8.18;6.50;;;10.40;99.90;;;;;;5010685;28;20252;-77
2022/02/03 21:32:47;;;;;;;7.65;6.85;;;10.40;99.90;;;;;;5022211;28;20620;-78
2022/02/03 21:35:14;;;;;;;7.30;6.18;;;10.30;99.90;;;;;;5020717;28;20190;-76
2022/02/03 21:37:41;;;;;;;8.43;6.88;;;10.30;99.90;;;;;;5030429;28;20182;-76
2022/02/03 21:40:08;;;;;;;9.45;8.25;;;10.30;99.90;;;;;;5035884;28;20165;-77
2022/02/03 21:42:33;;;;;;;7.78;6.63;;;10.30;99.90;;;;;;5021880;28;20321;-76
2022/02/03 21:44:59;;;;;;;8.57;7.77;;;10.30;99.90;;;;;;5029337;28;20976;-77
2022/02/03 21:47:25;;;;;;;8.63;7.03;;;10.30;99.90;;;;;;5041912;28;20580;-77
2022/02/03 21:49:51;;;;;;;7.97;5.87;;;10.30;99.90;;;;;;5021374;28;20699;-78
2022/02/03 21:52:22;;;;;;;6.20;5.37;;;10.30;99.90;;;;;;5011844;28;20267;-78
2022/02/03 21:54:48;;;;;;;6.80;6.10;;;10.30;99.90;;;;;;5021972;28;20956;-78
2022/02/03 21:57:15;;;;;;;7.10;5.90;;;10.30;99.90;;;;;;5024932;28;20189;-78
2022/02/03 21:59:40;;;;;;;6.60;6.00;;;10.30;99.90;;;;;;5026098;28;20173;-78
2022/02/03 22:02:08;;;;;;;7.87;6.10;;;10.30;99.90;;;;;;5022871;28;20194;-78
2022/02/03 22:04:34;;;;;;;6.28;5.45;;;10.30;99.90;;;;;;5024236;28;20181;-78
2022/02/03 22:07:00;;;;;;;8.65;5.75;;;10.30;99.90;;;;;;5024757;28;20573;-78
2022/02/03 22:09:26;;;;;;;5.72;5.22;;;10.30;99.90;;;;;;5027709;28;20185;-78
2022/02/03 22:11:52;;;;;;;9.50;6.60;;;10.30;99.90;;;;;;5021607;28;20202;-78
2022/02/03 22:14:18;;;;;;;6.10;5.50;;;10.30;99.90;;;;;;5019277;28;20265;-78
2022/02/03 22:16:43;;;;;;;7.00;6.30;;;10.30;99.90;;;;;;5021125;28;20184;-78
2022/02/03 22:19:09;;;;;;;5.90;5.27;;;10.30;99.90;;;;;;5027728;28;20193;-78
2022/02/03 22:21:49;;;;;;;7.37;6.20;;;10.30;99.90;;;;;;5023371;28;20743;-78
2022/02/03 22:24:23;;;;;;;8.07;5.90;;;10.30;99.90;;;;;;5018181;28;20747;-77
2022/02/03 22:27:08;;;;;;;6.68;6.07;;;10.30;99.90;;;;;;5023381;28;20242;-77
2022/02/03 22:43:19;;;;;;;6.25;5.65;;;10.30;99.90;;;;;;5024555;28;20582;-78
2022/02/03 22:45:51;;;;;;;7.28;5.93;;;10.40;99.90;;;;;;5022564;28;20193;-78
2022/02/03 22:50:48;;;;;;;6.28;5.65;;;10.40;99.90;;;;;;5024679;28;20259;-78
2022/02/03 22:53:14;;;;;;;5.80;5.30;;;10.40;99.90;;;;;;5024286;28;20194;-78
2022/02/03 22:55:40;;;;;;;7.40;6.60;;;10.40;99.90;;;;;;5031517;28;20580;-77
2022/02/03 23:00:58;;;;;;;6.15;5.55;;;10.30;99.90;;;;;;5022974;28;20198;-78
2022/02/03 23:03:28;;;;;;;6.60;5.97;;;10.30;99.90;;;;;;5024661;28;20181;-77
2022/02/03 23:05:55;;;;;;;6.70;6.10;;;10.30;99.90;;;;;;5026900;28;20268;-78
2022/02/03 23:21:44;;;;;;;7.40;6.78;;;10.30;99.90;;;;;;5023565;28;20592;-77
2022/02/03 23:24:10;;;;;;;6.60;5.97;;;10.30;99.90;;;;;;5022809;28;20174;-77
2022/02/03 23:26:37;;;;;;;7.10;6.40;;;10.30;99.90;;;;;;5025968;28;20233;-77
2022/02/03 23:29:09;;;;;;;6.10;5.43;;;10.40;99.90;;;;;;5040577;28;20256;-78
2022/02/03 23:31:46;;;;;;;7.00;5.75;;;10.40;99.90;;;;;;5025930;28;20209;-77
2022/02/03 23:34:13;;;;;;;7.38;6.18;;;10.40;99.90;;;;;;5029068;28;20504;-78
2022/02/03 23:36:39;;;;;;;6.40;5.85;;;10.40;99.90;;;;;;5022897;28;20175;-77
